createdAt,value
2022-12-14T00:02:22.304Z,8.20
2022-12-14T00:07:49.090Z,8.95
2022-12-14T00:13:21.191Z,9.48
2022-12-14T00:18:52.950Z,9.80
2022-12-14T00:24:22.797Z,8.60
2022-12-14T00:29:52.704Z,10.47
2022-12-14T00:35:21.388Z,11.30
2022-12-14T00:40:50.928Z,9.73
2022-12-14T00:46:22.399Z,10.23
2022-12-14T00:51:51.737Z,9.35
2022-12-14T00:57:15.041Z,10.15
2022-12-14T01:02:41.336Z,14.02
2022-12-14T01:08:12.733Z,15.05
2022-12-14T01:13:42.384Z,13.50
2022-12-14T01:19:08.184Z,13.10
2022-12-14T01:24:37.686Z,12.35
2022-12-14T01:30:00.963Z,13.52
2022-12-14T01:40:59.750Z,13.13
2022-12-14T01:46:35.085Z,13.73
2022-12-14T01:52:10.914Z,13.82
2022-12-14T01:57:43.832Z,12.02
2022-12-14T02:03:13.973Z,13.18
2022-12-14T02:08:48.360Z,12.00
2022-12-14T02:14:17.553Z,14.60
2022-12-14T02:19:46.878Z,12.40
2022-12-14T02:25:42.886Z,11.75
2022-12-14T02:31:22.539Z,11.57
2022-12-14T02:36:58.991Z,12.70
2022-12-14T02:42:38.631Z,10.73
2022-12-14T02:48:07.298Z,11.65
2022-12-14T02:53:44.483Z,13.55
2022-12-14T02:59:14.848Z,14.70
2022-12-14T03:04:46.204Z,10.82
2022-12-14T03:10:21.669Z,10.68
2022-12-14T03:15:48.513Z,11.23
2022-12-14T03:21:20.396Z,9.98
2022-12-14T03:26:51.342Z,10.32
2022-12-14T03:32:18.963Z,9.65
2022-12-14T03:37:53.079Z,13.50
2022-12-14T03:43:24.397Z,15.27
2022-12-14T03:48:57.863Z,16.58
2022-12-14T03:54:37.361Z,17.95
2022-12-14T04:00:09.205Z,16.45
2022-12-14T04:05:48.933Z,13.52
2022-12-14T04:11:35.964Z,11.45
2022-12-14T04:17:21.454Z,12.07
2022-12-14T04:22:49.587Z,10.07
2022-12-14T04:28:37.863Z,9.85
2022-12-14T04:34:07.015Z,8.80
2022-12-14T04:39:41.524Z,11.30
2022-12-14T04:45:18.663Z,13.20
2022-12-14T04:50:49.015Z,10.77
2022-12-14T04:56:23.901Z,9.68
2022-12-14T05:02:04.184Z,8.63
2022-12-14T05:07:41.503Z,9.20
2022-12-14T05:13:11.509Z,8.73
2022-12-14T05:18:44.306Z,9.55
2022-12-14T05:24:08.806Z,9.77
2022-12-14T05:29:32.339Z,12.60
2022-12-14T05:34:57.655Z,12.32
2022-12-14T05:40:20.973Z,13.68
2022-12-14T05:45:44.463Z,12.75
2022-12-14T05:51:11.988Z,11.70
2022-12-14T05:56:35.897Z,11.23
2022-12-14T06:01:59.463Z,11.80
2022-12-14T06:07:27.783Z,11.65
2022-12-14T06:12:51.752Z,10.68
2022-12-14T06:18:17.143Z,10.50
2022-12-14T06:23:43.347Z,10.18
2022-12-14T06:29:08.934Z,10.23
2022-12-14T06:34:39.259Z,10.48
2022-12-14T06:40:11.272Z,10.23
2022-12-14T06:45:35.196Z,10.38
2022-12-14T06:51:01.861Z,10.95
2022-12-14T06:56:28.796Z,10.63
2022-12-14T07:01:52.449Z,11.18
2022-12-14T07:07:16.086Z,11.68
2022-12-14T07:12:40.557Z,12.00
2022-12-14T07:18:09.858Z,12.48
2022-12-14T07:23:39.787Z,15.55
2022-12-14T07:29:12.063Z,13.18
2022-12-14T07:34:40.622Z,12.45
2022-12-14T07:40:04.567Z,12.25
2022-12-14T07:45:31.497Z,16.05
2022-12-14T07:51:05.978Z,15.27
2022-12-14T07:56:39.828Z,13.23
2022-12-14T08:02:13.142Z,13.95
2022-12-14T08:07:41.657Z,11.93
2022-12-14T08:13:05.309Z,10.85
2022-12-14T08:18:36.736Z,9.18
2022-12-14T08:24:06.178Z,9.70
2022-12-14T08:29:29.897Z,10.60
2022-12-14T08:34:58.608Z,8.23
2022-12-14T08:40:27.946Z,9.73
2022-12-14T08:45:55.768Z,10.40
2022-12-14T08:51:21.580Z,10.00
2022-12-14T08:56:44.983Z,7.43
2022-12-14T09:02:08.552Z,8.52
2022-12-14T09:13:06.513Z,8.60
2022-12-14T09:18:31.435Z,8.48
2022-12-14T09:23:59.837Z,8.45
2022-12-14T09:29:25.369Z,7.87
2022-12-14T09:34:54.734Z,8.75
2022-12-14T09:40:28.168Z,9.02
2022-12-14T09:45:56.809Z,7.97
2022-12-14T09:51:33.015Z,9.65
2022-12-14T09:57:11.747Z,9.10
2022-12-14T10:02:50.621Z,9.68
2022-12-14T10:08:26.044Z,10.32
2022-12-14T10:14:06.348Z,11.55
2022-12-14T10:19:43.129Z,12.90
2022-12-14T10:25:14.814Z,11.18
2022-12-14T10:30:47.543Z,11.65
2022-12-14T10:36:22.010Z,11.27
2022-12-14T10:41:57.105Z,11.50
2022-12-14T10:47:35.202Z,11.73
2022-12-14T10:53:06.308Z,10.23
2022-12-14T10:58:35.889Z,10.82
2022-12-14T11:04:04.696Z,10.63
2022-12-14T11:09:34.589Z,9.32
2022-12-14T11:15:06.603Z,11.38
2022-12-14T11:20:37.186Z,10.98
2022-12-14T11:26:03.720Z,12.30
2022-12-14T11:31:33.730Z,11.27
2022-12-14T11:37:15.519Z,10.20
2022-12-14T11:42:49.273Z,12.20
2022-12-14T11:48:22.631Z,11.10
2022-12-14T11:54:03.023Z,11.52
2022-12-14T11:59:31.944Z,11.52
2022-12-14T12:05:07.036Z,11.50
2022-12-14T12:10:42.154Z,12.43
2022-12-14T12:16:14.974Z,12.93
2022-12-14T12:21:42.080Z,11.93
2022-12-14T12:27:16.943Z,13.23
2022-12-14T12:32:50.633Z,13.40
2022-12-14T12:38:26.383Z,13.00
2022-12-14T12:43:55.679Z,12.57
2022-12-14T12:49:22.057Z,13.70
2022-12-14T12:54:58.015Z,13.37
2022-12-14T13:00:30.863Z,14.00
2022-12-14T13:06:10.183Z,14.23
2022-12-14T13:11:39.383Z,14.60
2022-12-14T13:17:08.794Z,14.75
2022-12-14T13:22:38.673Z,12.13
2022-12-14T13:28:23.882Z,12.43
2022-12-14T13:34:12.290Z,11.43
2022-12-14T13:40:21.514Z,14.88
2022-12-14T13:45:50.080Z,16.30
2022-12-14T13:51:29.215Z,15.52
2022-12-14T13:57:04.397Z,15.50
2022-12-14T14:02:42.151Z,20.02
2022-12-14T14:08:34.627Z,20.85
2022-12-14T14:14:13.550Z,22.30
2022-12-14T14:19:43.700Z,21.50
2022-12-14T14:25:41.021Z,21.77
2022-12-14T14:31:10.278Z,20.40
2022-12-14T14:36:39.569Z,21.65
2022-12-14T14:42:19.608Z,22.53
2022-12-14T14:47:57.040Z,20.88
2022-12-14T14:53:29.961Z,19.70
2022-12-14T14:59:43.687Z,20.08
2022-12-14T15:05:41.900Z,20.13
2022-12-14T15:11:17.097Z,22.17
2022-12-14T15:16:52.006Z,21.50
2022-12-14T15:22:22.916Z,21.67
2022-12-14T15:27:48.953Z,19.70
2022-12-14T15:33:26.368Z,19.83
2022-12-14T15:38:55.668Z,19.17
2022-12-14T15:44:23.782Z,18.02
2022-12-14T15:49:59.352Z,20.35
2022-12-14T15:55:38.123Z,18.95
2022-12-14T16:01:14.385Z,23.20
2022-12-14T16:06:51.954Z,23.63
2022-12-14T16:12:44.453Z,20.85
2022-12-14T16:18:17.683Z,21.20
2022-12-14T16:23:50.168Z,23.40
2022-12-14T16:29:21.703Z,22.65
2022-12-14T16:41:39.014Z,22.33
2022-12-14T16:47:28.690Z,24.83
2022-12-14T16:53:25.066Z,19.75
2022-12-14T16:59:03.252Z,20.50
2022-12-14T17:04:36.388Z,23.48
2022-12-14T17:10:01.465Z,25.23
2022-12-14T17:15:32.281Z,24.17
2022-12-14T17:21:03.370Z,24.05
2022-12-14T17:26:34.078Z,25.63
2022-12-14T17:32:04.644Z,25.10
2022-12-14T17:37:36.528Z,22.73
2022-12-14T17:43:06.812Z,25.27
2022-12-14T17:48:31.554Z,25.60
2022-12-14T17:53:59.411Z,25.58
2022-12-14T17:59:22.952Z,22.92
2022-12-14T18:04:51.990Z,26.33
2022-12-14T18:10:20.478Z,21.75
2022-12-14T18:15:49.708Z,20.85
2022-12-14T18:21:22.862Z,23.38
2022-12-14T18:26:51.835Z,21.45
2022-12-14T18:32:17.249Z,21.85
2022-12-14T18:37:49.413Z,20.02
2022-12-14T18:43:17.126Z,19.10
2022-12-14T18:48:47.578Z,16.38
2022-12-14T18:54:12.909Z,17.92
2022-12-14T18:59:42.804Z,18.98
2022-12-14T19:05:08.893Z,18.10
2022-12-14T19:10:41.544Z,22.40
2022-12-14T19:16:09.375Z,21.70
2022-12-14T19:21:36.722Z,21.42
2022-12-14T19:27:02.138Z,23.38
2022-12-14T19:32:32.101Z,23.10
2022-12-14T19:37:56.353Z,22.45
2022-12-14T19:43:22.309Z,21.17
2022-12-14T19:48:47.050Z,22.58
2022-12-14T19:54:14.222Z,21.98
2022-12-14T19:59:46.498Z,23.63
2022-12-14T20:05:10.688Z,21.15
2022-12-14T20:10:39.840Z,21.08
2022-12-14T20:16:16.708Z,20.83
2022-12-14T20:21:43.228Z,19.92
2022-12-14T20:27:11.970Z,20.57
2022-12-14T20:32:41.178Z,18.50
2022-12-14T20:38:05.176Z,18.40
2022-12-14T20:43:28.995Z,16.17
2022-12-14T20:49:01.514Z,18.65
2022-12-14T20:54:31.032Z,17.98
2022-12-14T20:59:59.526Z,20.63
2022-12-14T21:05:29.035Z,19.48
2022-12-14T21:11:22.012Z,15.73
2022-12-14T21:16:45.053Z,18.67
2022-12-14T21:22:13.466Z,25.80
2022-12-14T21:27:40.570Z,20.40
2022-12-14T21:33:04.414Z,15.18
2022-12-14T21:38:31.960Z,13.98
2022-12-14T21:44:01.237Z,13.70
2022-12-14T21:49:28.983Z,15.43
2022-12-14T21:54:59.890Z,16.23
2022-12-14T22:00:25.201Z,15.25
2022-12-14T22:05:48.880Z,18.02
2022-12-14T22:11:19.143Z,20.02
2022-12-14T22:16:52.285Z,15.75
2022-12-14T22:22:21.488Z,15.63
2022-12-14T22:27:52.648Z,14.77
2022-12-14T22:33:22.199Z,13.45
2022-12-14T22:38:51.499Z,13.23
2022-12-14T22:44:22.251Z,12.95
2022-12-14T22:49:46.126Z,12.70
2022-12-14T22:55:15.202Z,15.20
2022-12-14T23:00:39.865Z,14.68
2022-12-14T23:06:19.042Z,16.95
2022-12-14T23:12:08.755Z,16.88
2022-12-14T23:17:56.561Z,17.73
2022-12-14T23:23:39.017Z,16.23
2022-12-14T23:29:19.423Z,15.85
2022-12-14T23:35:06.958Z,17.40
2022-12-14T23:40:48.046Z,15.65
2022-12-14T23:46:34.530Z,16.92
2022-12-14T23:52:23.276Z,16.83
2022-12-14T23:58:09.435Z,17.77
